createdAt,value
2022-08-22T00:01:17.572Z,19.10
2022-08-22T00:03:09.131Z,19.49
2022-08-22T00:03:59.643Z,19.18
2022-08-22T00:06:55.188Z,19.13
2022-08-22T00:09:40.661Z,19.11
2022-08-22T00:12:10.137Z,19.03
2022-08-22T00:15:42.049Z,18.96
2022-08-22T00:18:08.163Z,18.87
2022-08-22T00:20:44.427Z,18.84
2022-08-22T00:23:22.988Z,18.87
2022-08-22T00:26:27.233Z,18.80
2022-08-22T00:29:01.286Z,18.76
2022-08-22T00:31:33.989Z,18.84
2022-08-22T00:34:12.011Z,18.74
2022-08-22T00:37:02.305Z,18.75
2022-08-22T00:40:03.631Z,18.42
2022-08-22T00:42:58.063Z,18.58
2022-08-22T00:45:59.855Z,18.57
2022-08-22T00:48:52.500Z,18.45
2022-08-22T00:51:51.003Z,18.38
2022-08-22T00:55:00.549Z,18.45
2022-08-22T00:58:01.087Z,18.40
2022-08-22T01:00:36.416Z,18.30
2022-08-22T01:03:46.889Z,18.27
2022-08-22T01:06:37.190Z,18.31
2022-08-22T01:09:41.567Z,18.23
2022-08-22T01:12:15.533Z,18.15
2022-08-22T01:14:51.862Z,18.30
2022-08-22T01:17:51.364Z,18.38
2022-08-22T01:20:36.035Z,18.30
2022-08-22T01:23:14.701Z,18.31
2022-08-22T01:26:09.882Z,18.31
2022-08-22T01:29:12.663Z,18.32
2022-08-22T01:32:08.631Z,18.22
2022-08-22T01:34:38.035Z,18.32
2022-08-22T01:37:45.549Z,18.30
2022-08-22T01:40:30.934Z,18.25
2022-08-22T01:43:01.977Z,18.31
2022-08-22T01:46:13.146Z,18.11
2022-08-22T01:49:13.398Z,18.26
2022-08-22T01:52:07.522Z,18.32
2022-08-22T01:55:01.368Z,18.23
2022-08-22T01:57:28.579Z,18.31
2022-08-22T01:59:59.128Z,18.29
2022-08-22T02:02:52.039Z,18.25
2022-08-22T02:05:46.916Z,18.21
2022-08-22T02:08:36.459Z,18.19
2022-08-22T02:11:06.971Z,18.10
2022-08-22T02:13:54.123Z,18.12
2022-08-22T02:16:31.871Z,18.12
2022-08-22T02:19:10.895Z,18.08
2022-08-22T02:22:13.623Z,17.98
2022-08-22T02:24:53.862Z,17.91
2022-08-22T02:27:39.170Z,17.97
2022-08-22T02:30:14.267Z,17.99
2022-08-22T02:32:40.879Z,17.98
2022-08-22T02:35:10.324Z,17.96
2022-08-22T02:38:07.448Z,17.92
2022-08-22T02:40:54.252Z,17.93
2022-08-22T02:43:42.238Z,17.81
2022-08-22T02:46:41.828Z,17.74
2022-08-22T02:49:36.272Z,17.58
2022-08-22T02:52:26.275Z,17.63
2022-08-22T02:55:02.164Z,17.76
2022-08-22T02:57:40.274Z,17.69
2022-08-22T03:00:31.658Z,17.67
2022-08-22T03:02:59.359Z,17.73
2022-08-22T03:05:37.781Z,17.68
2022-08-22T03:08:13.279Z,17.60
2022-08-22T03:10:48.990Z,17.48
2022-08-22T03:13:30.366Z,17.57
2022-08-22T03:16:10.529Z,17.45
2022-08-22T03:19:04.226Z,17.52
2022-08-22T03:21:34.212Z,17.40
2022-08-22T03:24:27.991Z,17.35
2022-08-22T03:27:31.354Z,17.32
2022-08-22T03:30:10.647Z,17.38
2022-08-22T03:32:50.690Z,17.38
2022-08-22T03:35:29.463Z,17.40
2022-08-22T03:38:16.884Z,17.31
2022-08-22T03:40:52.905Z,17.30
2022-08-22T03:43:50.138Z,17.31
2022-08-22T03:46:51.001Z,17.26
2022-08-22T03:49:31.358Z,17.08
2022-08-22T03:52:22.420Z,17.10
2022-08-22T03:55:26.475Z,17.03
2022-08-22T03:58:28.183Z,17.01
2022-08-22T04:01:15.456Z,16.95
2022-08-22T04:04:06.920Z,16.95
2022-08-22T04:06:56.299Z,16.92
2022-08-22T04:09:35.367Z,16.84
2022-08-22T04:12:34.608Z,16.85
2022-08-22T04:15:26.160Z,16.78
2022-08-22T04:18:17.655Z,16.76
2022-08-22T04:21:13.903Z,16.71
2022-08-22T04:24:01.685Z,16.69
2022-08-22T04:26:43.640Z,16.51
2022-08-22T04:29:22.113Z,16.54
2022-08-22T04:32:03.021Z,16.63
2022-08-22T04:34:37.554Z,16.59
2022-08-22T04:37:34.735Z,16.63
2022-08-22T04:40:16.775Z,16.58
2022-08-22T04:42:53.936Z,16.52
2022-08-22T04:45:36.676Z,16.48
2022-08-22T04:48:26.921Z,16.46
2022-08-22T04:51:25.955Z,16.51
2022-08-22T04:54:17.211Z,16.44
2022-08-22T04:57:08.580Z,16.50
2022-08-22T04:59:35.948Z,16.53
2022-08-22T05:02:08.447Z,16.51
2022-08-22T05:04:45.721Z,16.52
2022-08-22T05:07:25.997Z,16.53
2022-08-22T05:10:09.275Z,16.54
2022-08-22T05:12:49.485Z,16.52
2022-08-22T05:15:34.447Z,16.62
2022-08-22T05:18:07.475Z,16.66
2022-08-22T05:20:36.452Z,16.69
2022-08-22T05:23:17.053Z,16.69
2022-08-22T05:25:46.596Z,16.79
2022-08-22T05:28:32.108Z,16.79
2022-08-22T05:30:59.933Z,16.75
2022-08-22T05:33:47.898Z,16.85
2022-08-22T05:36:23.467Z,16.96
2022-08-22T05:39:02.411Z,16.97
2022-08-22T05:41:36.822Z,17.02
2022-08-22T05:44:04.507Z,17.03
2022-08-22T05:46:42.286Z,17.15
2022-08-22T05:49:19.052Z,17.25
2022-08-22T05:52:10.412Z,17.36
2022-08-22T05:54:49.139Z,17.50
2022-08-22T05:57:38.681Z,17.63
2022-08-22T06:00:12.758Z,17.69
2022-08-22T06:02:59.157Z,17.75
2022-08-22T06:05:29.185Z,17.86
2022-08-22T06:08:03.300Z,17.83
2022-08-22T06:10:48.352Z,17.80
2022-08-22T06:13:30.005Z,17.86
2022-08-22T06:16:16.921Z,17.87
2022-08-22T06:18:45.776Z,18.04
2022-08-22T06:21:39.562Z,18.11
2022-08-22T06:24:13.348Z,18.19
2022-08-22T06:26:48.804Z,18.34
2022-08-22T06:29:28.401Z,18.28
2022-08-22T06:31:56.052Z,18.40
2022-08-22T06:34:32.556Z,18.57
2022-08-22T06:37:03.908Z,18.57
2022-08-22T06:39:41.412Z,18.74
2022-08-22T06:42:19.188Z,18.82
2022-08-22T06:44:51.623Z,18.93
2022-08-22T06:47:36.132Z,18.93
2022-08-22T06:50:13.620Z,19.05
2022-08-22T06:53:18.388Z,19.02
2022-08-22T06:55:52.197Z,19.05
2022-08-22T06:58:27.023Z,19.17
2022-08-22T07:01:11.800Z,19.31
2022-08-22T07:04:00.672Z,19.47
2022-08-22T07:06:35.248Z,19.74
2022-08-22T07:09:06.909Z,19.78
2022-08-22T07:11:39.461Z,19.85
2022-08-22T07:14:11.264Z,20.12
2022-08-22T07:16:43.188Z,20.02
2022-08-22T07:19:22.246Z,19.97
2022-08-22T07:21:51.987Z,20.16
2022-08-22T07:24:25.562Z,20.59
2022-08-22T07:27:05.707Z,20.55
2022-08-22T07:30:02.065Z,20.70
2022-08-22T07:32:56.019Z,20.86
2022-08-22T07:35:44.144Z,21.04
2022-08-22T07:38:37.442Z,21.16
2022-08-22T07:41:14.040Z,21.38
2022-08-22T07:43:46.296Z,21.55
2022-08-22T07:46:30.920Z,21.58
2022-08-22T07:49:26.559Z,21.65
2022-08-22T07:51:58.758Z,21.57
2022-08-22T07:54:47.271Z,21.50
2022-08-22T07:57:16.018Z,21.63
2022-08-22T07:59:55.023Z,21.78
2022-08-22T08:02:22.807Z,22.01
2022-08-22T08:04:52.815Z,22.10
2022-08-22T08:07:23.751Z,21.96
2022-08-22T08:09:59.494Z,21.96
2022-08-22T08:12:34.792Z,22.04
2022-08-22T08:15:04.518Z,22.02
2022-08-22T08:17:34.243Z,22.12
2022-08-22T08:20:08.059Z,22.06
2022-08-22T08:22:37.261Z,22.20
2022-08-22T08:25:06.773Z,22.37
2022-08-22T08:27:57.057Z,22.77
2022-08-22T08:30:35.530Z,23.27
2022-08-22T08:33:24.371Z,23.60
2022-08-22T08:36:04.149Z,23.77
2022-08-22T08:39:12.365Z,23.93
2022-08-22T08:41:57.288Z,24.09
2022-08-22T08:44:55.178Z,24.54
2022-08-22T08:47:34.227Z,24.83
2022-08-22T08:50:34.095Z,25.09
2022-08-22T08:53:37.835Z,25.28
2022-08-22T08:56:37.206Z,25.44
2022-08-22T08:59:25.843Z,25.59
2022-08-22T09:02:08.492Z,25.66
2022-08-22T09:05:15.701Z,25.82
2022-08-22T09:07:59.213Z,25.97
2022-08-22T09:11:00.840Z,25.83
2022-08-22T09:13:44.440Z,26.56
2022-08-22T09:16:22.532Z,26.91
2022-08-22T09:19:02.024Z,27.19
2022-08-22T09:22:15.602Z,27.49
2022-08-22T09:25:14.641Z,27.35
2022-08-22T09:28:03.610Z,27.33
2022-08-22T09:30:59.793Z,27.20
2022-08-22T09:33:53.156Z,27.50
2022-08-22T09:36:59.929Z,27.20
2022-08-22T09:39:37.985Z,27.39
2022-08-22T09:42:18.327Z,27.61
2022-08-22T09:45:20.484Z,28.09
2022-08-22T09:48:06.388Z,28.60
2022-08-22T09:50:46.671Z,28.66
2022-08-22T09:53:32.034Z,28.07
2022-08-22T09:56:21.695Z,28.39
2022-08-22T09:59:04.666Z,28.68
2022-08-22T10:02:01.236Z,28.58
2022-08-22T10:04:44.512Z,29.23
2022-08-22T10:07:23.655Z,29.02
2022-08-22T10:10:03.863Z,29.47
2022-08-22T10:12:36.549Z,29.36
2022-08-22T10:15:16.655Z,29.50
2022-08-22T10:18:12.335Z,29.74
2022-08-22T10:21:10.588Z,29.37
2022-08-22T10:23:53.789Z,29.21
2022-08-22T10:26:38.656Z,28.57
2022-08-22T10:29:37.889Z,28.44
2022-08-22T10:32:16.300Z,28.95
2022-08-22T10:34:47.890Z,28.91
2022-08-22T10:37:39.711Z,29.81
2022-08-22T10:40:14.204Z,30.15
2022-08-22T10:43:03.485Z,31.06
2022-08-22T10:45:46.623Z,30.83
2022-08-22T10:48:35.210Z,31.34
2022-08-22T10:51:36.658Z,31.86
2022-08-22T10:54:20.039Z,30.87
2022-08-22T10:57:29.520Z,31.05
2022-08-22T11:00:16.033Z,31.12
2022-08-22T11:03:10.668Z,31.80
2022-08-22T11:05:50.011Z,31.47
2022-08-22T11:08:36.200Z,31.68
2022-08-22T11:11:06.577Z,32.32
2022-08-22T11:13:57.822Z,31.91
2022-08-22T11:16:48.942Z,31.44
2022-08-22T11:19:31.858Z,31.47
2022-08-22T11:22:14.479Z,31.08
2022-08-22T11:25:29.299Z,30.90
2022-08-22T11:28:20.128Z,30.96
2022-08-22T11:31:03.690Z,30.97
2022-08-22T11:33:47.259Z,30.90
2022-08-22T11:36:42.161Z,30.30
2022-08-22T11:39:19.153Z,30.13
2022-08-22T11:42:12.495Z,30.14
2022-08-22T11:44:50.037Z,30.50
2022-08-22T11:47:27.269Z,30.77
2022-08-22T11:49:58.683Z,30.77
2022-08-22T11:52:34.385Z,30.77
2022-08-22T11:55:05.663Z,30.45
2022-08-22T11:57:54.902Z,31.41
2022-08-22T12:00:23.028Z,31.12
2022-08-22T12:03:16.260Z,30.32
2022-08-22T12:06:36.351Z,30.57
2022-08-22T12:09:29.808Z,30.67
2022-08-22T12:12:20.392Z,30.29
2022-08-22T12:15:03.477Z,30.76
2022-08-22T12:17:55.714Z,30.56
2022-08-22T12:20:46.390Z,30.76
2022-08-22T12:23:43.655Z,31.09
2022-08-22T12:26:48.106Z,31.11
2022-08-22T12:29:33.808Z,30.58
2022-08-22T12:32:45.783Z,31.04
2022-08-22T12:35:38.161Z,30.62
2022-08-22T12:38:26.722Z,30.89
2022-08-22T12:41:27.666Z,32.36
2022-08-22T12:43:56.314Z,32.71
2022-08-22T12:46:36.229Z,32.89
2022-08-22T12:49:33.813Z,32.16
2022-08-22T12:52:08.407Z,32.40
2022-08-22T12:54:50.068Z,32.77
2022-08-22T12:57:39.019Z,33.33
2022-08-22T13:00:40.148Z,34.21
2022-08-22T13:03:23.723Z,34.44
2022-08-22T13:05:57.035Z,35.18
2022-08-22T13:08:42.348Z,34.89
2022-08-22T13:11:22.727Z,34.53
2022-08-22T13:14:00.093Z,33.31
2022-08-22T13:16:37.524Z,33.59
2022-08-22T13:19:13.449Z,35.07
2022-08-22T13:21:48.240Z,36.03
2022-08-22T13:24:22.769Z,36.24
2022-08-22T13:27:15.076Z,36.06
2022-08-22T13:29:47.963Z,36.61
2022-08-22T13:32:28.633Z,35.53
2022-08-22T13:34:57.280Z,36.37
2022-08-22T13:37:44.310Z,36.78
2022-08-22T13:40:21.236Z,37.29
2022-08-22T13:42:54.226Z,36.44
2022-08-22T13:45:25.597Z,36.97
2022-08-22T13:47:59.217Z,37.36
2022-08-22T13:50:52.961Z,37.42
2022-08-22T13:53:32.496Z,37.33
2022-08-22T13:56:15.440Z,37.90
2022-08-22T13:58:51.639Z,37.93
2022-08-22T14:01:25.209Z,36.59
2022-08-22T14:04:17.528Z,37.64
2022-08-22T14:07:24.111Z,36.95
2022-08-22T14:10:02.559Z,37.94
2022-08-22T14:12:50.044Z,37.99
2022-08-22T14:15:25.802Z,38.29
2022-08-22T14:17:56.888Z,38.83
2022-08-22T14:20:28.524Z,39.57
2022-08-22T14:23:09.106Z,39.63
2022-08-22T14:25:42.115Z,39.20
2022-08-22T14:28:27.323Z,39.82
2022-08-22T14:31:13.462Z,39.85
2022-08-22T14:33:53.473Z,40.07
2022-08-22T14:36:44.424Z,40.35
2022-08-22T14:39:42.955Z,39.49
2022-08-22T14:42:19.021Z,40.29
2022-08-22T14:44:58.193Z,40.68
2022-08-22T14:48:14.484Z,40.29
2022-08-22T14:50:46.254Z,40.35
2022-08-22T14:53:25.123Z,40.59
2022-08-22T14:56:04.085Z,40.84
2022-08-22T14:58:39.407Z,39.38
2022-08-22T15:01:15.755Z,40.58
2022-08-22T15:03:51.253Z,41.37
2022-08-22T15:06:38.780Z,41.24
2022-08-22T15:09:30.943Z,41.06
2022-08-22T15:11:58.045Z,41.26
2022-08-22T15:14:37.541Z,41.30
2022-08-22T15:17:08.727Z,40.62
2022-08-22T15:19:46.981Z,41.23
2022-08-22T15:22:27.560Z,40.90
2022-08-22T15:25:06.819Z,41.32
2022-08-22T15:27:48.838Z,41.66
2022-08-22T15:30:18.723Z,42.09
2022-08-22T15:32:48.879Z,42.16
2022-08-22T15:35:29.992Z,40.79
2022-08-22T15:38:04.276Z,41.56
2022-08-22T15:40:40.757Z,42.54
2022-08-22T15:43:22.106Z,40.77
2022-08-22T15:46:07.048Z,41.18
2022-08-22T15:48:38.986Z,41.23
2022-08-22T15:51:09.448Z,41.42
2022-08-22T15:53:45.664Z,40.77
2022-08-22T15:56:12.376Z,40.82
2022-08-22T15:58:48.820Z,41.03
2022-08-22T16:01:22.337Z,40.84
2022-08-22T16:03:58.361Z,40.64
2022-08-22T16:06:48.224Z,40.71
2022-08-22T16:09:52.328Z,39.58
2022-08-22T16:12:43.782Z,38.10
2022-08-22T16:15:55.930Z,37.52
2022-08-22T16:18:36.972Z,37.62
2022-08-22T16:21:05.473Z,36.91
2022-08-22T16:24:10.619Z,36.47
2022-08-22T16:26:40.812Z,35.92
2022-08-22T16:29:13.481Z,35.38
2022-08-22T16:31:44.067Z,35.14
2022-08-22T16:34:16.793Z,34.79
2022-08-22T16:37:14.316Z,34.95
2022-08-22T16:39:47.033Z,34.58
2022-08-22T16:42:22.120Z,34.44
2022-08-22T16:44:49.956Z,34.36
2022-08-22T16:47:41.269Z,34.14
2022-08-22T16:50:23.245Z,33.80
2022-08-22T16:53:10.627Z,33.76
2022-08-22T17:00:42.559Z,33.63
2022-08-22T17:04:03.920Z,33.90
2022-08-22T17:07:24.744Z,34.35
2022-08-22T17:10:45.467Z,34.69
2022-08-22T17:14:07.136Z,34.51
2022-08-22T17:16:53.404Z,33.87
2022-08-22T17:19:29.668Z,33.78
2022-08-22T17:22:04.507Z,33.59
2022-08-22T17:24:32.374Z,33.41
2022-08-22T17:27:25.415Z,33.15
2022-08-22T17:30:00.692Z,33.01
2022-08-22T17:32:33.599Z,32.85
2022-08-22T17:35:12.766Z,32.77
2022-08-22T17:38:18.499Z,32.55
2022-08-22T17:41:13.549Z,32.36
2022-08-22T17:43:49.250Z,32.32
2022-08-22T17:46:32.861Z,32.02
2022-08-22T17:49:12.972Z,31.82
2022-08-22T17:52:01.533Z,31.64
2022-08-22T17:54:43.209Z,31.39
2022-08-22T17:57:38.035Z,31.35
2022-08-22T18:00:13.896Z,31.14
2022-08-22T18:02:50.655Z,30.91
2022-08-22T18:05:20.527Z,30.94
2022-08-22T18:07:50.192Z,30.77
2022-08-22T18:10:35.805Z,30.61
2022-08-22T18:13:09.648Z,30.55
2022-08-22T18:15:47.567Z,30.49
2022-08-22T18:18:47.293Z,30.31
2022-08-22T18:21:24.811Z,30.08
2022-08-22T18:23:59.518Z,29.92
2022-08-22T18:26:36.701Z,29.72
2022-08-22T18:29:12.841Z,29.49
2022-08-22T18:32:20.431Z,29.36
2022-08-22T18:35:03.445Z,29.18
2022-08-22T18:37:30.212Z,29.01
2022-08-22T18:40:04.794Z,28.90
2022-08-22T18:43:01.600Z,28.55
2022-08-22T18:45:46.535Z,28.52
2022-08-22T18:48:24.867Z,28.29
2022-08-22T18:50:51.840Z,28.12
2022-08-22T18:53:43.380Z,27.85
2022-08-22T18:56:21.572Z,27.81
2022-08-22T18:59:05.356Z,27.72
2022-08-22T19:01:44.762Z,27.60
2022-08-22T19:04:25.792Z,27.30
2022-08-22T19:07:16.549Z,27.34
2022-08-22T19:10:34.638Z,27.18
2022-08-22T19:13:35.325Z,27.01
2022-08-22T19:16:11.132Z,26.84
2022-08-22T19:18:51.418Z,26.82
2022-08-22T19:21:53.182Z,26.53
2022-08-22T19:24:19.679Z,26.57
2022-08-22T19:26:49.067Z,26.40
2022-08-22T19:29:18.402Z,26.25
2022-08-22T19:31:53.097Z,26.18
2022-08-22T19:34:25.591Z,25.99
2022-08-22T19:37:32.833Z,25.97
2022-08-22T19:40:02.686Z,26.02
2022-08-22T19:42:34.696Z,25.69
2022-08-22T19:45:03.558Z,25.51
2022-08-22T19:47:37.999Z,25.51
2022-08-22T19:50:16.744Z,25.31
2022-08-22T19:53:00.992Z,25.32
2022-08-22T19:55:51.126Z,25.31
2022-08-22T19:58:39.403Z,25.27
2022-08-22T20:01:25.009Z,25.07
2022-08-22T20:04:03.860Z,25.08
2022-08-22T20:06:51.656Z,24.99
2022-08-22T20:09:38.496Z,24.72
2022-08-22T20:12:29.584Z,24.80
2022-08-22T20:14:56.787Z,24.66
2022-08-22T20:17:23.710Z,24.59
2022-08-22T20:20:28.022Z,24.66
2022-08-22T20:23:03.790Z,24.43
2022-08-22T20:26:03.124Z,24.45
2022-08-22T20:28:37.232Z,24.29
2022-08-22T20:31:10.474Z,24.16
2022-08-22T20:33:42.028Z,24.31
2022-08-22T20:36:27.373Z,24.00
2022-08-22T20:39:00.166Z,24.10
2022-08-22T20:41:34.026Z,24.12
2022-08-22T20:44:13.620Z,23.97
2022-08-22T20:46:46.383Z,23.81
2022-08-22T20:49:20.871Z,23.95
2022-08-22T20:52:08.748Z,23.85
2022-08-22T20:54:40.331Z,23.86
2022-08-22T20:57:19.231Z,23.85
2022-08-22T21:00:06.621Z,23.88
2022-08-22T21:02:43.381Z,23.82
2022-08-22T21:05:13.333Z,23.73
2022-08-22T21:07:42.885Z,23.64
2022-08-22T21:10:39.731Z,23.62
2022-08-22T21:13:17.236Z,23.53
2022-08-22T21:15:47.999Z,23.53
2022-08-22T21:18:25.588Z,23.52
2022-08-22T21:20:52.341Z,23.38
2022-08-22T21:23:19.675Z,23.49
2022-08-22T21:25:57.891Z,23.44
2022-08-22T21:28:38.513Z,23.45
2022-08-22T21:31:14.788Z,23.47
2022-08-22T21:33:47.419Z,23.48
2022-08-22T21:36:17.902Z,23.31
2022-08-22T21:39:01.798Z,23.33
2022-08-22T21:41:40.902Z,23.25
2022-08-22T21:44:29.005Z,23.28
2022-08-22T21:46:56.945Z,23.32
2022-08-22T21:49:29.941Z,23.34
2022-08-22T21:51:56.578Z,23.24
2022-08-22T21:54:27.794Z,23.28
2022-08-22T21:57:17.176Z,23.20
2022-08-22T21:59:51.526Z,23.29
2022-08-22T22:02:36.514Z,23.19
2022-08-22T22:05:08.111Z,23.25
2022-08-22T22:07:38.101Z,23.20
2022-08-22T22:10:08.512Z,23.20
2022-08-22T22:12:35.119Z,23.18
2022-08-22T22:15:03.126Z,23.11
2022-08-22T22:17:29.602Z,23.19
2022-08-22T22:19:56.900Z,23.08
2022-08-22T22:22:24.176Z,23.10
2022-08-22T22:24:50.651Z,23.16
2022-08-22T22:27:17.301Z,23.10
2022-08-22T22:29:44.179Z,23.17
2022-08-22T22:32:10.975Z,23.16
2022-08-22T22:34:39.022Z,23.13
2022-08-22T22:37:11.756Z,23.14
2022-08-22T22:39:38.774Z,23.20
2022-08-22T22:42:05.670Z,23.21
2022-08-22T22:44:32.946Z,23.16
2022-08-22T22:47:02.472Z,23.16
2022-08-22T22:49:30.037Z,23.04
2022-08-22T22:52:00.569Z,23.08
2022-08-22T22:54:27.555Z,23.08
2022-08-22T22:56:56.832Z,22.97
2022-08-22T22:59:25.816Z,23.05
2022-08-22T23:02:01.714Z,22.99
2022-08-22T23:04:30.463Z,23.03
2022-08-22T23:06:57.116Z,23.03
2022-08-22T23:09:25.008Z,22.93
2022-08-22T23:12:06.673Z,22.96
2022-08-22T23:14:34.439Z,22.92
2022-08-22T23:17:02.019Z,22.83
2022-08-22T23:19:29.277Z,22.86
2022-08-22T23:21:58.423Z,22.84
2022-08-22T23:24:27.499Z,22.82
2022-08-22T23:26:54.219Z,22.83
2022-08-22T23:29:20.758Z,22.70
2022-08-22T23:31:57.417Z,22.67
2022-08-22T23:34:28.142Z,22.74
2022-08-22T23:36:55.859Z,22.70
2022-08-22T23:39:24.580Z,22.66
2022-08-22T23:41:51.641Z,22.62
2022-08-22T23:44:21.023Z,22.55
2022-08-22T23:46:48.638Z,22.59
2022-08-22T23:49:16.241Z,22.53
2022-08-22T23:51:44.340Z,22.53
2022-08-22T23:54:12.066Z,22.51
2022-08-22T23:56:45.743Z,22.50
2022-08-22T23:59:16.024Z,22.51
